sensor_id;sensor_type;location;lat;lon;timestamp;pressure;altitude;pressure_sealevel;temperature;humidity
43745;BME280;29359;53.048;8.732;2023-02-28T00:00:31;103264.09;;;3.14;80.13
43745;BME280;29359;53.048;8.732;2023-02-28T00:02:33;103266.63;;;3.12;79.97
43745;BME280;29359;53.048;8.732;2023-02-28T00:04:34;103270.97;;;3.12;80.07
43745;BME280;29359;53.048;8.732;2023-02-28T00:06:36;103256.19;;;3.12;80.17
43745;BME280;29359;53.048;8.732;2023-02-28T00:08:38;103260.53;;;3.12;79.96
43745;BME280;29359;53.048;8.732;2023-02-28T00:10:39;103270.00;;;3.10;80.23
43745;BME280;29359;53.048;8.732;2023-02-28T00:12:41;103257.78;;;3.09;80.49
43745;BME280;29359;53.048;8.732;2023-02-28T00:14:43;103263.84;;;3.08;80.44
43745;BME280;29359;53.048;8.732;2023-02-28T00:16:44;103273.38;;;3.07;80.57
43745;BME280;29359;53.048;8.732;2023-02-28T00:18:46;103269.88;;;3.07;80.55
43745;BME280;29359;53.048;8.732;2023-02-28T00:20:48;103272.50;;;3.07;80.67
43745;BME280;29359;53.048;8.732;2023-02-28T00:22:52;103262.94;;;3.07;80.78
43745;BME280;29359;53.048;8.732;2023-02-28T00:24:53;103272.44;;;3.05;80.47
43745;BME280;29359;53.048;8.732;2023-02-28T00:26:55;103277.66;;;3.05;80.73
43745;BME280;29359;53.048;8.732;2023-02-28T00:28:56;103271.44;;;3.03;80.97
43745;BME280;29359;53.048;8.732;2023-02-28T00:30:58;103273.16;;;3.03;80.93
43745;BME280;29359;53.048;8.732;2023-02-28T00:33:01;103274.00;;;3.02;80.77
43745;BME280;29359;53.048;8.732;2023-02-28T00:35:03;103275.63;;;3.00;81.19
43745;BME280;29359;53.048;8.732;2023-02-28T00:37:06;103273.94;;;3.00;81.30
43745;BME280;29359;53.048;8.732;2023-02-28T00:39:08;103270.44;;;3.00;81.37
43745;BME280;29359;53.048;8.732;2023-02-28T00:41:10;103268.66;;;2.99;81.57
43745;BME280;29359;53.048;8.732;2023-02-28T00:43:11;103272.16;;;2.99;81.55
43745;BME280;29359;53.048;8.732;2023-02-28T00:45:13;103263.41;;;2.99;81.47
43745;BME280;29359;53.048;8.732;2023-02-28T00:47:14;103267.75;;;2.98;81.74
43745;BME280;29359;53.048;8.732;2023-02-28T00:49:16;103273.84;;;2.99;81.43
43745;BME280;29359;53.048;8.732;2023-02-28T00:51:18;103265.97;;;2.97;81.30
43745;BME280;29359;53.048;8.732;2023-02-28T00:53:19;103274.69;;;2.98;81.48
43745;BME280;29359;53.048;8.732;2023-02-28T00:55:21;103268.56;;;2.97;81.44
43745;BME280;29359;53.048;8.732;2023-02-28T00:57:23;103275.50;;;2.97;81.59
43745;BME280;29359;53.048;8.732;2023-02-28T00:59:24;103279.91;;;2.98;81.32
43745;BME280;29359;53.048;8.732;2023-02-28T01:01:26;103283.41;;;2.98;81.40
43745;BME280;29359;53.048;8.732;2023-02-28T01:03:28;103278.13;;;2.97;81.53
43745;BME280;29359;53.048;8.732;2023-02-28T01:05:29;103273.72;;;2.96;81.59
43745;BME280;29359;53.048;8.732;2023-02-28T01:07:31;103271.94;;;2.95;81.69
43745;BME280;29359;53.048;8.732;2023-02-28T01:09:32;103272.84;;;2.95;81.56
43745;BME280;29359;53.048;8.732;2023-02-28T01:11:34;103273.72;;;2.96;81.07
43745;BME280;29359;53.048;8.732;2023-02-28T01:13:37;103271.94;;;2.95;81.29
43745;BME280;29359;53.048;8.732;2023-02-28T01:15:45;103271.06;;;2.94;80.84
43745;BME280;29359;53.048;8.732;2023-02-28T01:17:47;103273.59;;;2.93;80.95
43745;BME280;29359;53.048;8.732;2023-02-28T01:19:48;103272.72;;;2.92;80.97
43745;BME280;29359;53.048;8.732;2023-02-28T01:21:50;103272.72;;;2.92;80.79
43745;BME280;29359;53.048;8.732;2023-02-28T01:23:51;103275.31;;;2.92;80.84
43745;BME280;29359;53.048;8.732;2023-02-28T01:25:53;103276.09;;;2.90;80.91
43745;BME280;29359;53.048;8.732;2023-02-28T01:27:54;103276.16;;;2.91;80.80
43745;BME280;29359;53.048;8.732;2023-02-28T01:29:56;103274.38;;;2.90;80.84
43745;BME280;29359;53.048;8.732;2023-02-28T01:31:57;103284.81;;;2.90;80.58
43745;BME280;29359;53.048;8.732;2023-02-28T01:34:01;103290.03;;;2.90;80.82
43745;BME280;29359;53.048;8.732;2023-02-28T01:36:05;103283.03;;;2.89;80.92
43745;BME280;29359;53.048;8.732;2023-02-28T01:38:07;103284.75;;;2.89;81.05
43745;BME280;29359;53.048;8.732;2023-02-28T01:40:22;103281.19;;;2.87;81.05
43745;BME280;29359;53.048;8.732;2023-02-28T01:42:24;103280.28;;;2.86;80.84
43745;BME280;29359;53.048;8.732;2023-02-28T01:46:55;103282.91;;;2.86;81.03
43745;BME280;29359;53.048;8.732;2023-02-28T01:49:02;103285.50;;;2.86;80.95
43745;BME280;29359;53.048;8.732;2023-02-28T01:51:06;103286.34;;;2.85;81.21
43745;BME280;29359;53.048;8.732;2023-02-28T01:53:15;103288.88;;;2.83;81.10
43745;BME280;29359;53.048;8.732;2023-02-28T01:55:19;103274.06;;;2.82;81.00
43745;BME280;29359;53.048;8.732;2023-02-28T01:57:27;103281.88;;;2.82;81.08
43745;BME280;29359;53.048;8.732;2023-02-28T01:59:42;103280.91;;;2.80;81.25
43745;BME280;29359;53.048;8.732;2023-02-28T02:01:48;103287.84;;;2.80;81.36
43745;BME280;29359;53.048;8.732;2023-02-28T02:03:53;103280.91;;;2.80;81.20
43745;BME280;29359;53.048;8.732;2023-02-28T02:05:57;103285.25;;;2.80;81.12
43745;BME280;29359;53.048;8.732;2023-02-28T02:08:04;103287.84;;;2.80;81.23
43745;BME280;29359;53.048;8.732;2023-02-28T02:17:24;103272.06;;;2.77;81.18
43745;BME280;29359;53.048;8.732;2023-02-28T02:24:18;103268.44;;;2.73;81.49
43745;BME280;29359;53.048;8.732;2023-02-28T02:29:23;103267.44;;;2.70;81.38
43745;BME280;29359;53.048;8.732;2023-02-28T02:35:01;103268.19;;;2.67;81.66
43745;BME280;29359;53.048;8.732;2023-02-28T02:36:42;103260.16;;;2.63;81.50
43745;BME280;29359;53.048;8.732;2023-02-28T02:38:55;103268.59;;;2.57;81.65
43745;BME280;29359;53.048;8.732;2023-02-28T02:43:25;103265.09;;;2.57;81.68
43745;BME280;29359;53.048;8.732;2023-02-28T02:45:43;103265.97;;;2.57;81.72
43745;BME280;29359;53.048;8.732;2023-02-28T02:47:46;103266.81;;;2.56;81.72
43745;BME280;29359;53.048;8.732;2023-02-28T02:49:51;103273.81;;;2.57;81.84
43745;BME280;29359;53.048;8.732;2023-02-28T02:51:56;103271.19;;;2.57;81.72
43745;BME280;29359;53.048;8.732;2023-02-28T02:54:08;103272.91;;;2.57;81.77
43745;BME280;29359;53.048;8.732;2023-02-28T02:56:10;103273.72;;;2.56;82.14
43745;BME280;29359;53.048;8.732;2023-02-28T02:58:16;103269.41;;;2.56;81.64
43745;BME280;29359;53.048;8.732;2023-02-28T03:00:25;103272.84;;;2.55;81.96
43745;BME280;29359;53.048;8.732;2023-02-28T03:02:29;103265.91;;;2.56;81.73
43745;BME280;29359;53.048;8.732;2023-02-28T03:04:42;103271.06;;;2.54;81.81
43745;BME280;29359;53.048;8.732;2023-02-28T03:06:44;103271.88;;;2.53;82.09
43745;BME280;29359;53.048;8.732;2023-02-28T03:08:46;103270.94;;;2.51;82.20
43745;BME280;29359;53.048;8.732;2023-02-28T03:10:54;103267.44;;;2.50;82.28
43745;BME280;29359;53.048;8.732;2023-02-28T03:13:28;103271.75;;;2.50;82.00
43745;BME280;29359;53.048;8.732;2023-02-28T03:18:06;103267.38;;;2.49;82.08
43745;BME280;29359;53.048;8.732;2023-02-28T03:20:25;103267.28;;;2.47;82.04
43745;BME280;29359;53.048;8.732;2023-02-28T03:26:57;103278.47;;;2.45;82.51
43745;BME280;29359;53.048;8.732;2023-02-28T03:29:23;103271.41;;;2.42;82.27
43745;BME280;29359;53.048;8.732;2023-02-28T03:31:33;103270.19;;;2.34;81.99
43745;BME280;29359;53.048;8.732;2023-02-28T03:33:40;103273.63;;;2.33;82.41
43745;BME280;29359;53.048;8.732;2023-02-28T03:35:49;103266.63;;;2.32;82.34
43745;BME280;29359;53.048;8.732;2023-02-28T03:38:00;103267.53;;;2.33;82.52
43745;BME280;29359;53.048;8.732;2023-02-28T03:40:08;103275.34;;;2.33;82.69
43745;BME280;29359;53.048;8.732;2023-02-28T03:42:17;103279.66;;;2.32;82.98
43745;BME280;29359;53.048;8.732;2023-02-28T03:44:27;103275.28;;;2.31;82.95
43745;BME280;29359;53.048;8.732;2023-02-28T03:46:33;103273.50;;;2.30;82.73
43745;BME280;29359;53.048;8.732;2023-02-28T03:48:42;103278.63;;;2.29;83.20
43745;BME280;29359;53.048;8.732;2023-02-28T03:50:47;103277.69;;;2.27;83.13
43745;BME280;29359;53.048;8.732;2023-02-28T03:52:55;103284.66;;;2.28;83.48
43745;BME280;29359;53.048;8.732;2023-02-28T03:55:07;103282.88;;;2.27;83.46
43745;BME280;29359;53.048;8.732;2023-02-28T03:57:36;103281.47;;;2.15;82.91
43745;BME280;29359;53.048;8.732;2023-02-28T03:59:47;103275.22;;;1.93;82.19
43745;BME280;29359;53.048;8.732;2023-02-28T04:01:51;103280.09;;;1.85;82.28
43745;BME280;29359;53.048;8.732;2023-02-28T04:03:53;103281.06;;;1.87;82.40
43745;BME280;29359;53.048;8.732;2023-02-28T04:05:55;103278.59;;;1.90;83.01
43745;BME280;29359;53.048;8.732;2023-02-28T04:08:08;103281.41;;;1.95;83.37
43745;BME280;29359;53.048;8.732;2023-02-28T04:10:11;103277.00;;;1.94;83.60
43745;BME280;29359;53.048;8.732;2023-02-28T04:12:12;103286.53;;;1.93;83.67
43745;BME280;29359;53.048;8.732;2023-02-28T04:14:14;103289.97;;;1.92;83.78
43745;BME280;29359;53.048;8.732;2023-02-28T04:16:16;103286.41;;;1.90;84.12
43745;BME280;29359;53.048;8.732;2023-02-28T04:18:34;103298.47;;;1.88;83.92
43745;BME280;29359;53.048;8.732;2023-02-28T04:20:36;103295.03;;;1.89;84.18
43745;BME280;29359;53.048;8.732;2023-02-28T04:22:37;103299.34;;;1.88;83.98
43745;BME280;29359;53.048;8.732;2023-02-28T04:24:39;103294.16;;;1.88;84.17
43745;BME280;29359;53.048;8.732;2023-02-28T04:26:47;103301.06;;;1.88;84.12
43745;BME280;29359;53.048;8.732;2023-02-28T04:28:49;103301.06;;;1.88;84.02
43745;BME280;29359;53.048;8.732;2023-02-28T04:30:56;103294.06;;;1.87;84.03
43745;BME280;29359;53.048;8.732;2023-02-28T04:32:59;103294.00;;;1.85;84.15
43745;BME280;29359;53.048;8.732;2023-02-28T04:35:01;103300.94;;;1.85;84.20
43745;BME280;29359;53.048;8.732;2023-02-28T04:37:04;103298.19;;;1.82;84.27
43745;BME280;29359;53.048;8.732;2023-02-28T04:39:15;103295.50;;;1.80;84.07
43745;BME280;29359;53.048;8.732;2023-02-28T04:41:17;103294.47;;;1.77;84.06
43745;BME280;29359;53.048;8.732;2023-02-28T04:43:18;103301.22;;;1.73;84.19
43745;BME280;29359;53.048;8.732;2023-02-28T04:45:20;103302.94;;;1.73;84.24
43745;BME280;29359;53.048;8.732;2023-02-28T04:47:22;103308.94;;;1.72;84.43
43745;BME280;29359;53.048;8.732;2023-02-28T04:49:23;103306.22;;;1.69;84.63
43745;BME280;29359;53.048;8.732;2023-02-28T04:51:25;103298.31;;;1.67;84.55
43745;BME280;29359;53.048;8.732;2023-02-28T04:53:27;103298.25;;;1.66;84.40
43745;BME280;29359;53.048;8.732;2023-02-28T04:55:29;103291.13;;;1.62;84.51
43745;BME280;29359;53.048;8.732;2023-02-28T04:57:31;103292.75;;;1.60;84.55
43745;BME280;29359;53.048;8.732;2023-02-28T04:59:32;103289.03;;;1.54;84.49
43745;BME280;29359;53.048;8.732;2023-02-28T05:01:34;103299.38;;;1.53;84.77
43745;BME280;29359;53.048;8.732;2023-02-28T05:03:36;103307.13;;;1.51;84.91
43745;BME280;29359;53.048;8.732;2023-02-28T05:05:37;103298.34;;;1.49;84.70
43745;BME280;29359;53.048;8.732;2023-02-28T05:07:39;103296.56;;;1.48;84.81
43745;BME280;29359;53.048;8.732;2023-02-28T05:09:40;103297.38;;;1.47;84.90
43745;BME280;29359;53.048;8.732;2023-02-28T05:11:41;103295.53;;;1.45;85.05
43745;BME280;29359;53.048;8.732;2023-02-28T05:13:43;103298.78;;;1.41;85.06
43745;BME280;29359;53.048;8.732;2023-02-28T05:15:45;103300.34;;;1.37;84.77
43745;BME280;29359;53.048;8.732;2023-02-28T05:17:46;103303.78;;;1.36;84.97
43745;BME280;29359;53.048;8.732;2023-02-28T05:19:48;103295.00;;;1.34;84.89
43745;BME280;29359;53.048;8.732;2023-02-28T05:21:52;103295.00;;;1.34;84.94
43745;BME280;29359;53.048;8.732;2023-02-28T05:23:55;103299.25;;;1.32;84.98
43745;BME280;29359;53.048;8.732;2023-02-28T05:25:58;103299.94;;;1.30;85.18
43745;BME280;29359;53.048;8.732;2023-02-28T05:27:59;103306.78;;;1.27;85.07
43745;BME280;29359;53.048;8.732;2023-02-28T05:30:01;103312.75;;;1.25;84.97
43745;BME280;29359;53.048;8.732;2023-02-28T05:32:04;103304.84;;;1.23;84.91
43745;BME280;29359;53.048;8.732;2023-02-28T05:34:06;103301.13;;;1.18;84.92
43745;BME280;29359;53.048;8.732;2023-02-28T05:36:08;103302.69;;;1.15;85.35
43745;BME280;29359;53.048;8.732;2023-02-28T05:38:09;103293.69;;;1.08;84.95
43745;BME280;29359;53.048;8.732;2023-02-28T05:40:11;103307.44;;;1.06;85.58
43745;BME280;29359;53.048;8.732;2023-02-28T05:42:12;103299.41;;;1.01;85.16
43745;BME280;29359;53.048;8.732;2023-02-28T05:44:15;103306.16;;;0.98;85.93
43745;BME280;29359;53.048;8.732;2023-02-28T05:46:16;103294.56;;;0.91;85.62
43745;BME280;29359;53.048;8.732;2023-02-28T05:48:18;103307.31;;;0.86;85.78
43745;BME280;29359;53.048;8.732;2023-02-28T05:50:20;103315.75;;;0.82;86.08
43745;BME280;29359;53.048;8.732;2023-02-28T05:52:21;103315.53;;;0.78;86.22
43745;BME280;29359;53.048;8.732;2023-02-28T05:54:23;103323.03;;;0.72;86.17
43745;BME280;29359;53.048;8.732;2023-02-28T05:56:24;103315.81;;;0.66;86.93
43745;BME280;29359;53.048;8.732;2023-02-28T05:58:26;103312.00;;;0.59;86.90
43745;BME280;29359;53.048;8.732;2023-02-28T06:00:31;103316.13;;;0.56;86.50
43745;BME280;29359;53.048;8.732;2023-02-28T06:02:33;103318.50;;;0.51;86.64
43745;BME280;29359;53.048;8.732;2023-02-28T06:04:34;103320.84;;;0.47;86.91
43745;BME280;29359;53.048;8.732;2023-02-28T06:06:36;103324.06;;;0.43;86.99
43745;BME280;29359;53.048;8.732;2023-02-28T06:08:38;103323.84;;;0.38;86.96
43745;BME280;29359;53.048;8.732;2023-02-28T06:10:39;103330.56;;;0.35;87.23
43745;BME280;29359;53.048;8.732;2023-02-28T06:12:41;103334.63;;;0.29;87.63
43745;BME280;29359;53.048;8.732;2023-02-28T06:14:43;103340.47;;;0.25;87.70
43745;BME280;29359;53.048;8.732;2023-02-28T06:16:45;103339.34;;;0.20;87.40
43745;BME280;29359;53.048;8.732;2023-02-28T06:18:46;103340.88;;;0.17;87.49
43745;BME280;29359;53.048;8.732;2023-02-28T06:20:54;103344.22;;;0.14;87.50
43745;BME280;29359;53.048;8.732;2023-02-28T06:22:57;103343.97;;;0.10;88.20
43745;BME280;29359;53.048;8.732;2023-02-28T06:25:03;103345.56;;;0.08;87.94
43745;BME280;29359;53.048;8.732;2023-02-28T06:27:04;103343.72;;;0.05;88.00
43745;BME280;29359;53.048;8.732;2023-02-28T06:29:06;103340.94;;;0.02;88.14
43745;BME280;29359;53.048;8.732;2023-02-28T06:31:10;103346.06;;;0.01;88.20
43745;BME280;29359;53.048;8.732;2023-02-28T06:33:12;103345.16;;;0.00;87.95
43745;BME280;29359;53.048;8.732;2023-02-28T06:35:14;103348.53;;;-0.01;88.28
43745;BME280;29359;53.048;8.732;2023-02-28T06:37:16;103349.34;;;-0.02;87.97
43745;BME280;29359;53.048;8.732;2023-02-28T06:39:17;103343.09;;;-0.06;88.17
43745;BME280;29359;53.048;8.732;2023-02-28T06:41:20;103350.78;;;-0.07;87.79
43745;BME280;29359;53.048;8.732;2023-02-28T06:43:22;103349.91;;;-0.08;87.69
43745;BME280;29359;53.048;8.732;2023-02-28T06:45:24;103352.50;;;-0.08;87.99
43745;BME280;29359;53.048;8.732;2023-02-28T06:47:27;103358.59;;;-0.07;87.77
43745;BME280;29359;53.048;8.732;2023-02-28T06:49:30;103354.28;;;-0.07;87.82
43745;BME280;29359;53.048;8.732;2023-02-28T06:51:31;103358.66;;;-0.06;87.30
43745;BME280;29359;53.048;8.732;2023-02-28T06:53:33;103349.19;;;-0.05;87.67
43745;BME280;29359;53.048;8.732;2023-02-28T06:55:37;103356.16;;;-0.04;87.26
43745;BME280;29359;53.048;8.732;2023-02-28T06:57:39;103361.34;;;-0.04;87.13
43745;BME280;29359;53.048;8.732;2023-02-28T06:59:40;103351.84;;;-0.04;86.83
43745;BME280;29359;53.048;8.732;2023-02-28T07:01:42;103354.44;;;-0.04;87.14
43745;BME280;29359;53.048;8.732;2023-02-28T07:03:44;103354.53;;;-0.02;86.81
43745;BME280;29359;53.048;8.732;2023-02-28T07:05:45;103352.75;;;-0.03;86.83
43745;BME280;29359;53.048;8.732;2023-02-28T07:07:46;103366.72;;;-0.01;86.85
43745;BME280;29359;53.048;8.732;2023-02-28T07:09:48;103366.72;;;-0.01;86.59
43745;BME280;29359;53.048;8.732;2023-02-28T07:11:50;103366.72;;;-0.01;86.67
43745;BME280;29359;53.048;8.732;2023-02-28T07:13:52;103367.53;;;-0.02;86.31
43745;BME280;29359;53.048;8.732;2023-02-28T07:15:56;103372.63;;;-0.04;86.33
43745;BME280;29359;53.048;8.732;2023-02-28T07:17:58;103374.41;;;-0.03;85.97
43745;BME280;29359;53.048;8.732;2023-02-28T07:19:59;103384.13;;;0.00;86.30
43745;BME280;29359;53.048;8.732;2023-02-28T07:22:01;103372.91;;;0.01;86.35
43745;BME280;29359;53.048;8.732;2023-02-28T07:24:04;103374.78;;;0.04;85.79
43745;BME280;29359;53.048;8.732;2023-02-28T07:26:06;103381.84;;;0.06;86.08
43745;BME280;29359;53.048;8.732;2023-02-28T07:28:07;103376.81;;;0.09;85.52
43745;BME280;29359;53.048;8.732;2023-02-28T07:30:09;103375.28;;;0.13;85.94
43745;BME280;29359;53.048;8.732;2023-02-28T07:32:11;103374.56;;;0.15;85.66
43745;BME280;29359;53.048;8.732;2023-02-28T07:34:13;103376.44;;;0.18;85.42
43745;BME280;29359;53.048;8.732;2023-02-28T07:36:16;103380.09;;;0.21;85.13
43745;BME280;29359;53.048;8.732;2023-02-28T07:38:20;103381.06;;;0.23;84.68
43745;BME280;29359;53.048;8.732;2023-02-28T07:40:21;103378.63;;;0.26;84.83
43745;BME280;29359;53.048;8.732;2023-02-28T07:42:23;103386.59;;;0.29;84.29
43745;BME280;29359;53.048;8.732;2023-02-28T07:44:24;103388.47;;;0.32;84.19
43745;BME280;29359;53.048;8.732;2023-02-28T07:46:26;103386.13;;;0.37;84.03
43745;BME280;29359;53.048;8.732;2023-02-28T07:48:31;103385.38;;;0.39;83.90
43745;BME280;29359;53.048;8.732;2023-02-28T07:50:32;103381.25;;;0.43;83.63
43745;BME280;29359;53.048;8.732;2023-02-28T07:52:39;103382.41;;;0.48;83.26
43745;BME280;29359;53.048;8.732;2023-02-28T07:54:40;103391.28;;;0.51;83.80
43745;BME280;29359;53.048;8.732;2023-02-28T07:56:42;103381.84;;;0.53;83.64
43745;BME280;29359;53.048;8.732;2023-02-28T07:58:43;103384.69;;;0.58;83.41
43745;BME280;29359;53.048;8.732;2023-02-28T08:00:45;103379.75;;;0.62;82.56
43745;BME280;29359;53.048;8.732;2023-02-28T08:02:46;103389.56;;;0.68;82.59
43745;BME280;29359;53.048;8.732;2023-02-28T08:04:48;103389.81;;;0.73;82.81
43745;BME280;29359;53.048;8.732;2023-02-28T08:06:50;103387.44;;;0.77;82.36
43745;BME280;29359;53.048;8.732;2023-02-28T08:08:54;103385.16;;;0.83;82.43
43745;BME280;29359;53.048;8.732;2023-02-28T08:11:01;103390.72;;;0.89;82.91
43745;BME280;29359;53.048;8.732;2023-02-28T08:13:03;103386.66;;;0.94;82.67
43745;BME280;29359;53.048;8.732;2023-02-28T08:15:05;103384.44;;;1.02;82.33
43745;BME280;29359;53.048;8.732;2023-02-28T08:17:07;103392.47;;;1.07;82.66
43745;BME280;29359;53.048;8.732;2023-02-28T08:19:08;103389.28;;;1.12;82.66
43745;BME280;29359;53.048;8.732;2023-02-28T08:21:10;103395.69;;;1.19;81.93
43745;BME280;29359;53.048;8.732;2023-02-28T08:23:12;103389.09;;;1.25;81.69
43745;BME280;29359;53.048;8.732;2023-02-28T08:25:13;103392.19;;;1.35;81.59
43745;BME280;29359;53.048;8.732;2023-02-28T08:27:15;103390.03;;;1.44;81.27
43745;BME280;29359;53.048;8.732;2023-02-28T08:29:16;103395.56;;;1.50;80.81
43745;BME280;29359;53.048;8.732;2023-02-28T08:31:18;103392.34;;;1.55;80.74
43745;BME280;29359;53.048;8.732;2023-02-28T08:33:20;103395.25;;;1.62;80.87
43745;BME280;29359;53.048;8.732;2023-02-28T08:35:22;103396.38;;;1.67;80.45
43745;BME280;29359;53.048;8.732;2023-02-28T08:37:24;103392.28;;;1.72;79.69
43745;BME280;29359;53.048;8.732;2023-02-28T08:39:25;103391.78;;;1.79;78.81
43745;BME280;29359;53.048;8.732;2023-02-28T08:41:27;103388.81;;;1.89;76.67
43745;BME280;29359;53.048;8.732;2023-02-28T08:43:29;103387.69;;;2.02;74.15
43745;BME280;29359;53.048;8.732;2023-02-28T08:45:31;103390.03;;;2.15;72.03
43745;BME280;29359;53.048;8.732;2023-02-28T08:47:32;103392.28;;;2.25;71.21
43745;BME280;29359;53.048;8.732;2023-02-28T08:49:34;103391.75;;;2.32;69.98
43745;BME280;29359;53.048;8.732;2023-02-28T08:51:35;103395.66;;;2.42;69.56
43745;BME280;29359;53.048;8.732;2023-02-28T08:53:38;103391.00;;;2.54;69.00
43745;BME280;29359;53.048;8.732;2023-02-28T08:55:40;103387.19;;;2.65;67.82
43745;BME280;29359;53.048;8.732;2023-02-28T08:57:41;103384.94;;;2.73;67.52
43745;BME280;29359;53.048;8.732;2023-02-28T08:59:43;103395.56;;;2.77;67.55
43745;BME280;29359;53.048;8.732;2023-02-28T09:01:44;103390.47;;;2.80;67.61
43745;BME280;29359;53.048;8.732;2023-02-28T09:03:48;103387.19;;;2.84;67.08
43745;BME280;29359;53.048;8.732;2023-02-28T09:07:55;103391.66;;;3.06;66.89
43745;BME280;29359;53.048;8.732;2023-02-28T09:09:56;103396.31;;;3.13;66.54
43745;BME280;29359;53.048;8.732;2023-02-28T09:11:59;103393.13;;;3.21;66.30
43745;BME280;29359;53.048;8.732;2023-02-28T09:14:01;103392.50;;;3.26;65.68
43745;BME280;29359;53.048;8.732;2023-02-28T09:16:07;103391.03;;;3.33;64.50
43745;BME280;29359;53.048;8.732;2023-02-28T09:18:10;103393.06;;;3.40;64.04
43745;BME280;29359;53.048;8.732;2023-02-28T09:20:12;103391.34;;;3.40;63.56
43745;BME280;29359;53.048;8.732;2023-02-28T09:22:13;103388.03;;;3.44;63.47
43745;BME280;29359;53.048;8.732;2023-02-28T09:24:15;103394.22;;;3.46;63.37
43745;BME280;29359;53.048;8.732;2023-02-28T09:26:19;103398.84;;;3.52;63.01
43745;BME280;29359;53.048;8.732;2023-02-28T09:28:22;103388.41;;;3.52;62.56
43745;BME280;29359;53.048;8.732;2023-02-28T09:30:23;103391.06;;;3.54;62.50
43745;BME280;29359;53.048;8.732;2023-02-28T09:32:25;103391.91;;;3.53;62.11
43745;BME280;29359;53.048;8.732;2023-02-28T09:34:28;103386.78;;;3.56;61.83
43745;BME280;29359;53.048;8.732;2023-02-28T09:36:32;103383.53;;;3.61;61.03
43745;BME280;29359;53.048;8.732;2023-02-28T09:38:45;103383.84;;;3.69;59.82
43745;BME280;29359;53.048;8.732;2023-02-28T09:40:58;103375.31;;;3.73;60.35
43745;BME280;29359;53.048;8.732;2023-02-28T09:43:00;103386.59;;;3.72;61.99
43745;BME280;29359;53.048;8.732;2023-02-28T09:45:06;103388.38;;;3.73;61.51
43745;BME280;29359;53.048;8.732;2023-02-28T09:49:24;103389.56;;;3.81;62.83
43745;BME280;29359;53.048;8.732;2023-02-28T09:53:36;103399.50;;;3.90;57.87
43745;BME280;29359;53.048;8.732;2023-02-28T09:55:50;103400.59;;;3.95;57.17
43745;BME280;29359;53.048;8.732;2023-02-28T09:57:52;103405.25;;;4.02;56.73
43745;BME280;29359;53.048;8.732;2023-02-28T10:00:18;103399.38;;;4.07;59.40
43745;BME280;29359;53.048;8.732;2023-02-28T10:04:53;103397.88;;;4.14;65.29
43745;BME280;29359;53.048;8.732;2023-02-28T10:06:56;103399.38;;;4.07;68.53
43745;BME280;29359;53.048;8.732;2023-02-28T10:11:06;103403.94;;;4.13;64.41
43745;BME280;29359;53.048;8.732;2023-02-28T10:13:23;103399.66;;;4.15;67.48
43745;BME280;29359;53.048;8.732;2023-02-28T10:15:30;103402.09;;;4.10;69.60
43745;BME280;29359;53.048;8.732;2023-02-28T10:17:38;103392.66;;;4.14;68.42
43745;BME280;29359;53.048;8.732;2023-02-28T10:20:05;103411.38;;;4.25;66.05
43745;BME280;29359;53.048;8.732;2023-02-28T10:22:26;103404.78;;;4.34;63.71
43745;BME280;29359;53.048;8.732;2023-02-28T10:24:35;103407.75;;;4.44;62.32
43745;BME280;29359;53.048;8.732;2023-02-28T10:26:43;103409.88;;;4.54;61.64
43745;BME280;29359;53.048;8.732;2023-02-28T10:28:46;103407.56;;;4.61;60.80
43745;BME280;29359;53.048;8.732;2023-02-28T10:30:52;103412.41;;;4.74;56.46
43745;BME280;29359;53.048;8.732;2023-02-28T10:32:54;103411.94;;;4.85;57.16
43745;BME280;29359;53.048;8.732;2023-02-28T10:35:16;103415.59;;;4.90;58.69
43745;BME280;29359;53.048;8.732;2023-02-28T10:37:19;103414.88;;;4.94;59.20
43745;BME280;29359;53.048;8.732;2023-02-28T10:39:43;103416.16;;;5.05;58.80
43745;BME280;29359;53.048;8.732;2023-02-28T10:41:45;103405.88;;;5.11;58.11
43745;BME280;29359;53.048;8.732;2023-02-28T10:43:46;103404.28;;;5.15;58.01
43745;BME280;29359;53.048;8.732;2023-02-28T10:48:03;103403.09;;;5.30;59.77
43745;BME280;29359;53.048;8.732;2023-02-28T10:50:44;103407.72;;;5.38;61.87
43745;BME280;29359;53.048;8.732;2023-02-28T10:52:44;103395.59;;;5.41;62.78
43745;BME280;29359;53.048;8.732;2023-02-28T10:54:46;103405.56;;;5.51;63.52
43745;BME280;29359;53.048;8.732;2023-02-28T10:57:18;103397.34;;;5.66;60.19
43745;BME280;29359;53.048;8.732;2023-02-28T10:59:28;103396.16;;;5.83;57.98
43745;BME280;29359;53.048;8.732;2023-02-28T11:03:34;103390.84;;;6.07;52.40
43745;BME280;29359;53.048;8.732;2023-02-28T11:05:36;103397.25;;;6.17;52.88
43745;BME280;29359;53.048;8.732;2023-02-28T11:07:37;103398.69;;;6.36;54.86
43745;BME280;29359;53.048;8.732;2023-02-28T11:09:55;103388.56;;;6.48;61.75
43745;BME280;29359;53.048;8.732;2023-02-28T11:11:58;103392.50;;;6.62;63.43
43745;BME280;29359;53.048;8.732;2023-02-28T11:14:05;103389.84;;;6.92;60.94
43745;BME280;29359;53.048;8.732;2023-02-28T11:16:10;103380.66;;;7.39;52.44
43745;BME280;29359;53.048;8.732;2023-02-28T11:20:20;103388.31;;;8.80;49.19
43745;BME280;29359;53.048;8.732;2023-02-28T11:22:28;103388.59;;;9.41;49.56
43745;BME280;29359;53.048;8.732;2023-02-28T11:24:34;103381.94;;;10.19;46.07
43745;BME280;29359;53.048;8.732;2023-02-28T11:26:55;103376.03;;;11.09;42.84
43745;BME280;29359;53.048;8.732;2023-02-28T11:29:11;103374.81;;;11.66;48.65
43745;BME280;29359;53.048;8.732;2023-02-28T11:35:31;103373.59;;;12.43;38.69
43745;BME280;29359;53.048;8.732;2023-02-28T11:37:37;103370.81;;;12.20;36.48
43745;BME280;29359;53.048;8.732;2023-02-28T11:39:39;103372.38;;;11.90;38.09
43745;BME280;29359;53.048;8.732;2023-02-28T11:47:06;103366.69;;;12.97;37.32
43745;BME280;29359;53.048;8.732;2023-02-28T11:51:26;103357.91;;;13.10;34.78
43745;BME280;29359;53.048;8.732;2023-02-28T11:56:10;103364.16;;;13.80;35.24
43745;BME280;29359;53.048;8.732;2023-02-28T11:58:43;103361.38;;;14.49;36.79
43745;BME280;29359;53.048;8.732;2023-02-28T12:03:15;103343.06;;;15.43;43.86